sensor_id;sensor_type;location;lat;lon;timestamp;temperature;humidity
19898;DHT22;10111;50.814;4.572;2023-01-10T00:01:22;6.70;99.90
19898;DHT22;10111;50.814;4.572;2023-01-10T00:03:47;6.70;99.90
19898;DHT22;10111;50.814;4.572;2023-01-10T00:06:13;6.90;99.90
19898;DHT22;10111;50.814;4.572;2023-01-10T00:08:38;6.70;99.90
19898;DHT22;10111;50.814;4.572;2023-01-10T00:11:04;6.70;99.90
19898;DHT22;10111;50.814;4.572;2023-01-10T00:13:53;6.60;99.90
19898;DHT22;10111;50.814;4.572;2023-01-10T00:16:20;6.70;99.90
19898;DHT22;10111;50.814;4.572;2023-01-10T00:18:45;6.70;99.90
19898;DHT22;10111;50.814;4.572;2023-01-10T00:21:11;6.70;99.90
19898;DHT22;10111;50.814;4.572;2023-01-10T00:23:39;6.70;99.90
19898;DHT22;10111;50.814;4.572;2023-01-10T00:26:05;6.70;99.90
19898;DHT22;10111;50.814;4.572;2023-01-10T00:28:31;6.80;99.90
19898;DHT22;10111;50.814;4.572;2023-01-10T00:30:59;6.90;99.90
19898;DHT22;10111;50.814;4.572;2023-01-10T00:33:26;6.80;99.90
19898;DHT22;10111;50.814;4.572;2023-01-10T00:35:52;6.80;99.90
19898;DHT22;10111;50.814;4.572;2023-01-10T00:38:18;6.50;99.90
19898;DHT22;10111;50.814;4.572;2023-01-10T00:40:45;6.50;99.90
19898;DHT22;10111;50.814;4.572;2023-01-10T00:43:11;6.40;99.90
19898;DHT22;10111;50.814;4.572;2023-01-10T00:45:55;6.30;99.90
19898;DHT22;10111;50.814;4.572;2023-01-10T00:48:22;6.20;99.90
19898;DHT22;10111;50.814;4.572;2023-01-10T00:50:48;6.20;99.90
19898;DHT22;10111;50.814;4.572;2023-01-10T00:53:13;6.20;99.90
19898;DHT22;10111;50.814;4.572;2023-01-10T00:55:39;6.20;99.90
19898;DHT22;10111;50.814;4.572;2023-01-10T00:58:05;6.20;99.90
19898;DHT22;10111;50.814;4.572;2023-01-10T01:00:31;6.30;99.90
19898;DHT22;10111;50.814;4.572;2023-01-10T01:02:56;6.30;99.90
19898;DHT22;10111;50.814;4.572;2023-01-10T01:05:22;6.50;99.90
19898;DHT22;10111;50.814;4.572;2023-01-10T01:07:49;6.50;99.90
19898;DHT22;10111;50.814;4.572;2023-01-10T01:10:15;6.50;99.90
19898;DHT22;10111;50.814;4.572;2023-01-10T01:13:14;6.50;99.90
19898;DHT22;10111;50.814;4.572;2023-01-10T01:15:40;6.60;99.90
19898;DHT22;10111;50.814;4.572;2023-01-10T01:18:06;6.70;99.90
19898;DHT22;10111;50.814;4.572;2023-01-10T01:20:33;6.60;99.90
19898;DHT22;10111;50.814;4.572;2023-01-10T01:22:59;6.90;99.90
19898;DHT22;10111;50.814;4.572;2023-01-10T01:25:25;6.70;99.90
19898;DHT22;10111;50.814;4.572;2023-01-10T01:27:51;6.80;99.90
19898;DHT22;10111;50.814;4.572;2023-01-10T01:30:17;7.00;99.90
19898;DHT22;10111;50.814;4.572;2023-01-10T01:32:42;7.00;99.90
19898;DHT22;10111;50.814;4.572;2023-01-10T01:35:12;6.80;99.90
19898;DHT22;10111;50.814;4.572;2023-01-10T01:37:38;6.80;99.90
19898;DHT22;10111;50.814;4.572;2023-01-10T01:40:04;6.80;99.90
19898;DHT22;10111;50.814;4.572;2023-01-10T01:42:33;6.70;99.90
19898;DHT22;10111;50.814;4.572;2023-01-10T01:47:39;6.60;99.90
19898;DHT22;10111;50.814;4.572;2023-01-10T01:50:14;6.50;99.90
19898;DHT22;10111;50.814;4.572;2023-01-10T01:52:40;6.40;99.90
19898;DHT22;10111;50.814;4.572;2023-01-10T01:55:06;6.40;99.90
19898;DHT22;10111;50.814;4.572;2023-01-10T01:57:33;6.40;99.90
19898;DHT22;10111;50.814;4.572;2023-01-10T02:00:00;6.30;99.90
19898;DHT22;10111;50.814;4.572;2023-01-10T02:02:30;6.30;99.90
19898;DHT22;10111;50.814;4.572;2023-01-10T02:05:05;6.20;99.90
19898;DHT22;10111;50.814;4.572;2023-01-10T02:07:35;6.10;99.90
19898;DHT22;10111;50.814;4.572;2023-01-10T02:10:10;6.10;99.90
19898;DHT22;10111;50.814;4.572;2023-01-10T02:12:38;6.10;99.90
19898;DHT22;10111;50.814;4.572;2023-01-10T02:15:05;6.00;99.90
19898;DHT22;10111;50.814;4.572;2023-01-10T02:17:31;6.00;99.90
19898;DHT22;10111;50.814;4.572;2023-01-10T02:19:58;6.10;99.90
19898;DHT22;10111;50.814;4.572;2023-01-10T02:36:43;6.30;99.90
19898;DHT22;10111;50.814;4.572;2023-01-10T02:39:24;6.20;99.90
19898;DHT22;10111;50.814;4.572;2023-01-10T02:41:59;6.40;99.90
19898;DHT22;10111;50.814;4.572;2023-01-10T02:47:07;6.10;99.90
19898;DHT22;10111;50.814;4.572;2023-01-10T02:49:43;6.10;99.90
19898;DHT22;10111;50.814;4.572;2023-01-10T02:52:10;6.20;99.90
19898;DHT22;10111;50.814;4.572;2023-01-10T02:54:36;6.10;99.90
19898;DHT22;10111;50.814;4.572;2023-01-10T03:00:00;6.00;99.90
19898;DHT22;10111;50.814;4.572;2023-01-10T03:08:25;5.80;99.90
19898;DHT22;10111;50.814;4.572;2023-01-10T03:11:06;5.80;99.90
19898;DHT22;10111;50.814;4.572;2023-01-10T03:16:18;5.80;99.90
19898;DHT22;10111;50.814;4.572;2023-01-10T03:21:18;5.80;99.90
19898;DHT22;10111;50.814;4.572;2023-01-10T03:23:46;5.60;99.90
19898;DHT22;10111;50.814;4.572;2023-01-10T03:26:14;5.60;99.90
19898;DHT22;10111;50.814;4.572;2023-01-10T03:28:54;5.50;99.90
19898;DHT22;10111;50.814;4.572;2023-01-10T03:31:31;5.50;99.90
19898;DHT22;10111;50.814;4.572;2023-01-10T03:34:01;5.40;99.90
19898;DHT22;10111;50.814;4.572;2023-01-10T03:36:40;5.50;99.90
19898;DHT22;10111;50.814;4.572;2023-01-10T03:39:38;5.60;99.90
19898;DHT22;10111;50.814;4.572;2023-01-10T03:42:07;5.60;99.90
19898;DHT22;10111;50.814;4.572;2023-01-10T03:50:02;5.70;99.90
19898;DHT22;10111;50.814;4.572;2023-01-10T03:52:29;5.80;99.90
19898;DHT22;10111;50.814;4.572;2023-01-10T03:54:56;5.90;99.90
19898;DHT22;10111;50.814;4.572;2023-01-10T03:57:24;5.80;99.90
19898;DHT22;10111;50.814;4.572;2023-01-10T03:59:53;6.00;99.90
19898;DHT22;10111;50.814;4.572;2023-01-10T04:02:19;5.90;99.90
19898;DHT22;10111;50.814;4.572;2023-01-10T04:04:45;6.10;99.90
19898;DHT22;10111;50.814;4.572;2023-01-10T04:07:10;5.90;99.90
19898;DHT22;10111;50.814;4.572;2023-01-10T04:09:37;6.10;99.90
19898;DHT22;10111;50.814;4.572;2023-01-10T04:12:03;5.90;99.90
19898;DHT22;10111;50.814;4.572;2023-01-10T04:14:29;5.80;99.90
19898;DHT22;10111;50.814;4.572;2023-01-10T04:16:57;5.90;99.90
19898;DHT22;10111;50.814;4.572;2023-01-10T04:19:22;6.00;99.90
19898;DHT22;10111;50.814;4.572;2023-01-10T04:21:48;5.90;99.90
19898;DHT22;10111;50.814;4.572;2023-01-10T04:24:13;5.80;99.90
19898;DHT22;10111;50.814;4.572;2023-01-10T04:26:39;5.70;99.90
19898;DHT22;10111;50.814;4.572;2023-01-10T04:29:05;5.80;99.90
19898;DHT22;10111;50.814;4.572;2023-01-10T04:31:31;5.80;99.90
19898;DHT22;10111;50.814;4.572;2023-01-10T04:33:56;5.70;99.90
19898;DHT22;10111;50.814;4.572;2023-01-10T04:36:22;5.60;99.90
19898;DHT22;10111;50.814;4.572;2023-01-10T04:38:48;5.50;99.90
19898;DHT22;10111;50.814;4.572;2023-01-10T04:41:13;5.50;99.90
19898;DHT22;10111;50.814;4.572;2023-01-10T04:43:39;5.50;99.90
19898;DHT22;10111;50.814;4.572;2023-01-10T04:46:04;5.70;99.90
19898;DHT22;10111;50.814;4.572;2023-01-10T04:48:30;5.60;99.90
19898;DHT22;10111;50.814;4.572;2023-01-10T04:50:56;5.50;99.90
19898;DHT22;10111;50.814;4.572;2023-01-10T04:53:21;5.50;99.90
19898;DHT22;10111;50.814;4.572;2023-01-10T04:55:47;5.40;99.90
19898;DHT22;10111;50.814;4.572;2023-01-10T04:58:13;5.30;99.90
19898;DHT22;10111;50.814;4.572;2023-01-10T05:00:39;5.40;99.90
19898;DHT22;10111;50.814;4.572;2023-01-10T05:03:05;5.30;99.90
19898;DHT22;10111;50.814;4.572;2023-01-10T05:05:31;5.30;99.90
19898;DHT22;10111;50.814;4.572;2023-01-10T05:07:57;5.30;99.90
19898;DHT22;10111;50.814;4.572;2023-01-10T05:10:23;5.50;99.90
19898;DHT22;10111;50.814;4.572;2023-01-10T05:12:48;5.40;99.90
19898;DHT22;10111;50.814;4.572;2023-01-10T05:15:14;5.40;99.90
19898;DHT22;10111;50.814;4.572;2023-01-10T05:17:40;5.40;99.90
19898;DHT22;10111;50.814;4.572;2023-01-10T05:20:06;5.50;99.90
19898;DHT22;10111;50.814;4.572;2023-01-10T05:22:32;5.30;99.90
19898;DHT22;10111;50.814;4.572;2023-01-10T05:24:58;5.20;99.90
19898;DHT22;10111;50.814;4.572;2023-01-10T05:27:24;5.30;99.90
19898;DHT22;10111;50.814;4.572;2023-01-10T05:29:49;5.20;99.90
19898;DHT22;10111;50.814;4.572;2023-01-10T05:32:15;5.20;99.90
19898;DHT22;10111;50.814;4.572;2023-01-10T05:34:41;5.30;99.90
19898;DHT22;10111;50.814;4.572;2023-01-10T05:37:06;5.10;99.90
19898;DHT22;10111;50.814;4.572;2023-01-10T05:39:32;5.00;99.90
19898;DHT22;10111;50.814;4.572;2023-01-10T05:41:58;5.10;99.90
19898;DHT22;10111;50.814;4.572;2023-01-10T05:44:23;5.40;99.90
19898;DHT22;10111;50.814;4.572;2023-01-10T05:46:49;5.20;99.90
19898;DHT22;10111;50.814;4.572;2023-01-10T05:49:15;5.30;99.90
19898;DHT22;10111;50.814;4.572;2023-01-10T05:51:40;5.20;99.90
19898;DHT22;10111;50.814;4.572;2023-01-10T05:54:07;5.20;99.90
19898;DHT22;10111;50.814;4.572;2023-01-10T05:56:33;5.10;99.90
19898;DHT22;10111;50.814;4.572;2023-01-10T05:58:58;5.10;99.90
19898;DHT22;10111;50.814;4.572;2023-01-10T06:01:24;5.10;99.90
19898;DHT22;10111;50.814;4.572;2023-01-10T06:03:50;5.00;99.90
19898;DHT22;10111;50.814;4.572;2023-01-10T06:06:15;5.10;99.90
19898;DHT22;10111;50.814;4.572;2023-01-10T06:08:41;5.20;99.90
19898;DHT22;10111;50.814;4.572;2023-01-10T06:11:07;5.30;99.90
19898;DHT22;10111;50.814;4.572;2023-01-10T06:13:33;5.10;99.90
19898;DHT22;10111;50.814;4.572;2023-01-10T06:15:59;5.10;99.90
19898;DHT22;10111;50.814;4.572;2023-01-10T06:18:25;5.10;99.90
19898;DHT22;10111;50.814;4.572;2023-01-10T06:20:50;5.00;99.90
19898;DHT22;10111;50.814;4.572;2023-01-10T06:23:16;4.90;99.90
19898;DHT22;10111;50.814;4.572;2023-01-10T06:25:42;4.90;99.90
19898;DHT22;10111;50.814;4.572;2023-01-10T06:28:08;4.80;99.90
19898;DHT22;10111;50.814;4.572;2023-01-10T06:30:34;5.00;99.90
19898;DHT22;10111;50.814;4.572;2023-01-10T06:33:05;4.90;99.90
19898;DHT22;10111;50.814;4.572;2023-01-10T06:35:31;5.10;99.90
19898;DHT22;10111;50.814;4.572;2023-01-10T06:37:57;4.90;99.90
19898;DHT22;10111;50.814;4.572;2023-01-10T06:40:23;4.90;99.90
19898;DHT22;10111;50.814;4.572;2023-01-10T06:42:49;4.90;99.90
19898;DHT22;10111;50.814;4.572;2023-01-10T06:45:15;5.10;99.90
19898;DHT22;10111;50.814;4.572;2023-01-10T06:47:41;4.90;99.90
19898;DHT22;10111;50.814;4.572;2023-01-10T06:50:07;5.00;99.90
19898;DHT22;10111;50.814;4.572;2023-01-10T06:52:33;5.00;99.90
19898;DHT22;10111;50.814;4.572;2023-01-10T06:54:59;4.90;99.90
19898;DHT22;10111;50.814;4.572;2023-01-10T06:57:24;5.00;99.90
19898;DHT22;10111;50.814;4.572;2023-01-10T06:59:50;5.00;99.90
19898;DHT22;10111;50.814;4.572;2023-01-10T07:02:16;5.10;99.90
19898;DHT22;10111;50.814;4.572;2023-01-10T07:04:42;5.10;99.90
19898;DHT22;10111;50.814;4.572;2023-01-10T07:07:07;5.20;99.90
19898;DHT22;10111;50.814;4.572;2023-01-10T07:09:33;5.30;99.90
19898;DHT22;10111;50.814;4.572;2023-01-10T07:11:58;5.20;99.90
19898;DHT22;10111;50.814;4.572;2023-01-10T07:14:24;5.20;99.90
19898;DHT22;10111;50.814;4.572;2023-01-10T07:16:50;5.20;99.90
19898;DHT22;10111;50.814;4.572;2023-01-10T07:19:16;5.20;99.90
19898;DHT22;10111;50.814;4.572;2023-01-10T07:21:42;4.90;99.90
19898;DHT22;10111;50.814;4.572;2023-01-10T07:24:08;5.00;99.90
19898;DHT22;10111;50.814;4.572;2023-01-10T07:26:34;4.90;99.90
19898;DHT22;10111;50.814;4.572;2023-01-10T07:29:00;5.00;99.90
19898;DHT22;10111;50.814;4.572;2023-01-10T07:31:26;5.20;99.90
19898;DHT22;10111;50.814;4.572;2023-01-10T07:33:52;5.30;99.90
19898;DHT22;10111;50.814;4.572;2023-01-10T07:36:17;5.10;99.90
19898;DHT22;10111;50.814;4.572;2023-01-10T07:38:43;5.10;99.90
19898;DHT22;10111;50.814;4.572;2023-01-10T07:41:09;5.10;99.90
19898;DHT22;10111;50.814;4.572;2023-01-10T07:43:35;5.30;99.90
19898;DHT22;10111;50.814;4.572;2023-01-10T07:46:02;5.20;99.90
19898;DHT22;10111;50.814;4.572;2023-01-10T07:48:28;5.20;99.90
19898;DHT22;10111;50.814;4.572;2023-01-10T07:50:59;5.20;99.90
19898;DHT22;10111;50.814;4.572;2023-01-10T07:53:26;5.40;99.90
19898;DHT22;10111;50.814;4.572;2023-01-10T07:55:53;5.20;99.90
19898;DHT22;10111;50.814;4.572;2023-01-10T07:58:19;5.30;99.90
19898;DHT22;10111;50.814;4.572;2023-01-10T08:00:45;5.30;99.90
19898;DHT22;10111;50.814;4.572;2023-01-10T08:03:11;5.40;99.90
19898;DHT22;10111;50.814;4.572;2023-01-10T08:05:37;5.40;99.90
19898;DHT22;10111;50.814;4.572;2023-01-10T08:08:07;5.50;99.90
19898;DHT22;10111;50.814;4.572;2023-01-10T08:10:34;5.70;99.90
19898;DHT22;10111;50.814;4.572;2023-01-10T08:13:00;5.70;99.90
19898;DHT22;10111;50.814;4.572;2023-01-10T08:15:26;5.80;99.90
19898;DHT22;10111;50.814;4.572;2023-01-10T08:17:51;5.80;99.90
19898;DHT22;10111;50.814;4.572;2023-01-10T08:20:17;5.80;99.90
19898;DHT22;10111;50.814;4.572;2023-01-10T08:22:43;5.90;99.90
19898;DHT22;10111;50.814;4.572;2023-01-10T08:25:09;6.00;99.90
19898;DHT22;10111;50.814;4.572;2023-01-10T08:27:35;6.20;99.90
19898;DHT22;10111;50.814;4.572;2023-01-10T08:30:00;6.00;99.90
19898;DHT22;10111;50.814;4.572;2023-01-10T08:32:26;6.10;99.90
19898;DHT22;10111;50.814;4.572;2023-01-10T08:34:52;6.20;99.90
19898;DHT22;10111;50.814;4.572;2023-01-10T08:37:17;6.10;99.90
19898;DHT22;10111;50.814;4.572;2023-01-10T08:39:43;6.10;99.90
19898;DHT22;10111;50.814;4.572;2023-01-10T08:42:09;6.10;99.90
19898;DHT22;10111;50.814;4.572;2023-01-10T08:44:35;6.10;99.90
19898;DHT22;10111;50.814;4.572;2023-01-10T08:47:00;6.20;99.90
19898;DHT22;10111;50.814;4.572;2023-01-10T08:49:26;6.30;99.90
19898;DHT22;10111;50.814;4.572;2023-01-10T08:51:52;6.30;99.90
19898;DHT22;10111;50.814;4.572;2023-01-10T08:54:18;6.30;99.90
19898;DHT22;10111;50.814;4.572;2023-01-10T08:56:43;6.30;99.90
19898;DHT22;10111;50.814;4.572;2023-01-10T08:59:09;6.30;99.90
19898;DHT22;10111;50.814;4.572;2023-01-10T09:01:34;6.50;99.90
19898;DHT22;10111;50.814;4.572;2023-01-10T09:04:00;6.60;99.90
19898;DHT22;10111;50.814;4.572;2023-01-10T09:06:26;6.60;99.90
19898;DHT22;10111;50.814;4.572;2023-01-10T09:08:52;6.60;99.90
19898;DHT22;10111;50.814;4.572;2023-01-10T09:11:17;6.60;99.90
19898;DHT22;10111;50.814;4.572;2023-01-10T09:13:43;6.70;99.90
19898;DHT22;10111;50.814;4.572;2023-01-10T09:16:09;6.60;99.90
19898;DHT22;10111;50.814;4.572;2023-01-10T09:18:34;6.60;99.90
19898;DHT22;10111;50.814;4.572;2023-01-10T09:21:00;6.60;99.90
19898;DHT22;10111;50.814;4.572;2023-01-10T09:23:27;6.70;99.90
19898;DHT22;10111;50.814;4.572;2023-01-10T09:25:54;6.80;99.90
19898;DHT22;10111;50.814;4.572;2023-01-10T09:28:20;7.20;99.90
19898;DHT22;10111;50.814;4.572;2023-01-10T09:30:47;7.10;99.90
19898;DHT22;10111;50.814;4.572;2023-01-10T09:33:13;7.10;99.90
19898;DHT22;10111;50.814;4.572;2023-01-10T09:35:40;7.00;99.90
19898;DHT22;10111;50.814;4.572;2023-01-10T09:38:10;6.90;99.90
19898;DHT22;10111;50.814;4.572;2023-01-10T09:40:54;7.00;99.90
19898;DHT22;10111;50.814;4.572;2023-01-10T09:45:59;7.00;99.90
19898;DHT22;10111;50.814;4.572;2023-01-10T09:48:35;7.00;99.90
19898;DHT22;10111;50.814;4.572;2023-01-10T09:53:54;7.30;99.90
19898;DHT22;10111;50.814;4.572;2023-01-10T09:56:21;7.40;99.90
19898;DHT22;10111;50.814;4.572;2023-01-10T09:58:47;7.40;99.90
19898;DHT22;10111;50.814;4.572;2023-01-10T10:01:33;7.50;99.90
19898;DHT22;10111;50.814;4.572;2023-01-10T10:06:40;7.50;99.90
19898;DHT22;10111;50.814;4.572;2023-01-10T10:09:09;7.60;99.90
19898;DHT22;10111;50.814;4.572;2023-01-10T10:17:27;7.70;99.90
19898;DHT22;10111;50.814;4.572;2023-01-10T10:23:00;7.80;99.90
19898;DHT22;10111;50.814;4.572;2023-01-10T10:36:49;7.90;99.90
19898;DHT22;10111;50.814;4.572;2023-01-10T10:39:20;8.00;99.90
19898;DHT22;10111;50.814;4.572;2023-01-10T10:41:50;8.10;99.90
19898;DHT22;10111;50.814;4.572;2023-01-10T10:44:31;8.20;99.90
19898;DHT22;10111;50.814;4.572;2023-01-10T10:46:59;8.30;99.90
19898;DHT22;10111;50.814;4.572;2023-01-10T10:50:14;8.30;99.90
19898;DHT22;10111;50.814;4.572;2023-01-10T10:52:42;8.30;99.90
19898;DHT22;10111;50.814;4.572;2023-01-10T10:55:13;8.30;99.90
19898;DHT22;10111;50.814;4.572;2023-01-10T10:57:41;8.40;99.90
19898;DHT22;10111;50.814;4.572;2023-01-10T11:00:14;8.50;99.90
19898;DHT22;10111;50.814;4.572;2023-01-10T11:02:54;8.50;99.90
19898;DHT22;10111;50.814;4.572;2023-01-10T11:05:36;8.60;99.90
19898;DHT22;10111;50.814;4.572;2023-01-10T11:08:04;8.60;99.90
19898;DHT22;10111;50.814;4.572;2023-01-10T11:10:37;8.70;99.90
19898;DHT22;10111;50.814;4.572;2023-01-10T11:15:59;8.70;99.90
19898;DHT22;10111;50.814;4.572;2023-01-10T11:18:28;8.70;99.90
19898;DHT22;10111;50.814;4.572;2023-01-10T11:21:07;8.80;99.90
19898;DHT22;10111;50.814;4.572;2023-01-10T11:23:48;8.80;99.90
19898;DHT22;10111;50.814;4.572;2023-01-10T11:29:06;8.80;99.90
19898;DHT22;10111;50.814;4.572;2023-01-10T11:31:33;8.80;99.90
19898;DHT22;10111;50.814;4.572;2023-01-10T11:34:04;8.80;99.90
19898;DHT22;10111;50.814;4.572;2023-01-10T11:36:51;8.80;99.90
19898;DHT22;10111;50.814;4.572;2023-01-10T11:39:17;8.90;99.90
19898;DHT22;10111;50.814;4.572;2023-01-10T11:41:43;8.80;99.90
19898;DHT22;10111;50.814;4.572;2023-01-10T11:44:35;8.90;99.90
19898;DHT22;10111;50.814;4.572;2023-01-10T11:47:03;9.00;99.90
19898;DHT22;10111;50.814;4.572;2023-01-10T11:49:36;9.00;99.90
19898;DHT22;10111;50.814;4.572;2023-01-10T11:52:12;9.00;99.90
19898;DHT22;10111;50.814;4.572;2023-01-10T11:54:40;9.00;99.90
19898;DHT22;10111;50.814;4.572;2023-01-10T11:57:18;9.10;99.90
19898;DHT22;10111;50.814;4.572;2023-01-10T12:00:10;9.10;99.90
19898;DHT22;10111;50.814;4.572;2023-01-10T12:02:41;9.10;99.90
19898;DHT22;10111;50.814;4.572;2023-01-10T12:05:10;9.10;99.90
19898;DHT22;10111;50.814;4.572;2023-01-10T12:08:21;9.20;99.90
19898;DHT22;10111;50.814;4.572;2023-01-10T12:11:05;9.30;99.90
19898;DHT22;10111;50.814;4.572;2023-01-10T12:13:51;9.30;99.90
19898;DHT22;10111;50.814;4.572;2023-01-10T12:16:20;9.30;99.90
19898;DHT22;10111;50.814;4.572;2023-01-10T12:18:48;9.30;99.90
19898;DHT22;10111;50.814;4.572;2023-01-10T12:21:16;9.30;99.90
19898;DHT22;10111;50.814;4.572;2023-01-10T12:23:44;9.30;99.90
19898;DHT22;10111;50.814;4.572;2023-01-10T12:26:12;9.20;99.90
19898;DHT22;10111;50.814;4.572;2023-01-10T12:28:41;9.10;99.90
19898;DHT22;10111;50.814;4.572;2023-01-10T12:31:14;9.30;99.90
19898;DHT22;10111;50.814;4.572;2023-01-10T12:33:49;9.50;99.90
19898;DHT22;10111;50.814;4.572;2023-01-10T12:36:38;9.30;99.90
19898;DHT22;10111;50.814;4.572;2023-01-10T12:39:21;9.30;99.90
19898;DHT22;10111;50.814;4.572;2023-01-10T12:45:15;9.40;99.90
19898;DHT22;10111;50.814;4.572;2023-01-10T12:50:56;9.40;99.90
19898;DHT22;10111;50.814;4.572;2023-01-10T12:53:34;9.50;99.90
19898;DHT22;10111;50.814;4.572;2023-01-10T12:56:04;9.40;99.90
19898;DHT22;10111;50.814;4.572;2023-01-10T12:58:39;9.40;99.90
19898;DHT22;10111;50.814;4.572;2023-01-10T13:01:21;9.30;99.90
19898;DHT22;10111;50.814;4.572;2023-01-10T13:03:53;9.20;99.90
19898;DHT22;10111;50.814;4.572;2023-01-10T13:06:35;9.10;99.90
19898;DHT22;10111;50.814;4.572;2023-01-10T13:09:15;9.00;99.90
19898;DHT22;10111;50.814;4.572;2023-01-10T13:15:25;8.80;99.90
19898;DHT22;10111;50.814;4.572;2023-01-10T13:22:50;8.80;99.90
19898;DHT22;10111;50.814;4.572;2023-01-10T13:25:21;8.90;99.90
19898;DHT22;10111;50.814;4.572;2023-01-10T13:27:55;8.90;99.90
19898;DHT22;10111;50.814;4.572;2023-01-10T13:30:28;8.90;99.90
19898;DHT22;10111;50.814;4.572;2023-01-10T13:33:04;8.90;99.90
19898;DHT22;10111;50.814;4.572;2023-01-10T13:35:38;8.90;99.90
19898;DHT22;10111;50.814;4.572;2023-01-10T13:38:05;8.90;99.90
19898;DHT22;10111;50.814;4.572;2023-01-10T13:40:39;8.80;99.90
19898;DHT22;10111;50.814;4.572;2023-01-10T13:43:31;8.80;99.90
19898;DHT22;10111;50.814;4.572;2023-01-10T13:51:17;8.80;99.90
19898;DHT22;10111;50.814;4.572;2023-01-10T13:56:37;8.80;99.90
19898;DHT22;10111;50.814;4.572;2023-01-10T13:59:09;8.80;99.90
19898;DHT22;10111;50.814;4.572;2023-01-10T14:01:57;8.70;99.90
19898;DHT22;10111;50.814;4.572;2023-01-10T14:04:52;8.80;99.90
19898;DHT22;10111;50.814;4.572;2023-01-10T14:07:27;8.80;99.90
19898;DHT22;10111;50.814;4.572;2023-01-10T14:09:59;8.60;99.90
19898;DHT22;10111;50.814;4.572;2023-01-10T14:12:32;8.60;99.90
19898;DHT22;10111;50.814;4.572;2023-01-10T14:15:06;8.60;99.90
19898;DHT22;10111;50.814;4.572;2023-01-10T14:17:34;8.60;99.90
19898;DHT22;10111;50.814;4.572;2023-01-10T14:20:14;8.60;99.90
19898;DHT22;10111;50.814;4.572;2023-01-10T14:22:56;8.50;99.90
19898;DHT22;10111;50.814;4.572;2023-01-10T14:25:25;8.50;99.90
19898;DHT22;10111;50.814;4.572;2023-01-10T14:27:51;8.50;99.90
19898;DHT22;10111;50.814;4.572;2023-01-10T14:30:30;8.50;99.90
19898;DHT22;10111;50.814;4.572;2023-01-10T14:33:11;8.40;99.90
19898;DHT22;10111;50.814;4.572;2023-01-10T14:35:41;8.30;99.90
19898;DHT22;10111;50.814;4.572;2023-01-10T14:38:18;8.30;99.90
19898;DHT22;10111;50.814;4.572;2023-01-10T14:40:49;8.30;99.90
19898;DHT22;10111;50.814;4.572;2023-01-10T14:43:19;8.40;99.90
19898;DHT22;10111;50.814;4.572;2023-01-10T14:46:07;8.30;99.90
19898;DHT22;10111;50.814;4.572;2023-01-10T14:48:52;8.30;99.90
19898;DHT22;10111;50.814;4.572;2023-01-10T14:51:25;8.30;99.90
19898;DHT22;10111;50.814;4.572;2023-01-10T14:54:20;8.30;99.90
19898;DHT22;10111;50.814;4.572;2023-01-10T14:56:49;8.30;99.90
19898;DHT22;10111;50.814;4.572;2023-01-10T14:59:22;8.30;99.90
19898;DHT22;10111;50.814;4.572;2023-01-10T15:01:50;8.40;99.90
19898;DHT22;10111;50.814;4.572;2023-01-10T15:04:18;8.50;99.90
19898;DHT22;10111;50.814;4.572;2023-01-10T15:09:51;8.40;99.90
19898;DHT22;10111;50.814;4.572;2023-01-10T15:12:19;8.50;99.90
19898;DHT22;10111;50.814;4.572;2023-01-10T15:14:48;8.40;99.90
19898;DHT22;10111;50.814;4.572;2023-01-10T15:17:17;8.40;99.90
19898;DHT22;10111;50.814;4.572;2023-01-10T15:19:49;8.50;99.90
19898;DHT22;10111;50.814;4.572;2023-01-10T15:22:36;8.40;99.90
19898;DHT22;10111;50.814;4.572;2023-01-10T15:27:48;8.40;99.90
19898;DHT22;10111;50.814;4.572;2023-01-10T15:30:28;8.20;99.90
19898;DHT22;10111;50.814;4.572;2023-01-10T15:33:02;8.20;99.90
19898;DHT22;10111;50.814;4.572;2023-01-10T15:35:29;8.20;99.90
19898;DHT22;10111;50.814;4.572;2023-01-10T15:38:29;8.20;99.90
19898;DHT22;10111;50.814;4.572;2023-01-10T15:40:59;8.30;99.90
19898;DHT22;10111;50.814;4.572;2023-01-10T15:43:28;8.30;99.90
19898;DHT22;10111;50.814;4.572;2023-01-10T15:45:56;8.40;99.90
19898;DHT22;10111;50.814;4.572;2023-01-10T15:51:14;8.40;99.90
19898;DHT22;10111;50.814;4.572;2023-01-10T15:54:04;8.40;99.90
19898;DHT22;10111;50.814;4.572;2023-01-10T15:56:48;8.40;99.90
19898;DHT22;10111;50.814;4.572;2023-01-10T15:59:34;8.40;99.90
19898;DHT22;10111;50.814;4.572;2023-01-10T16:04:36;8.30;99.90
19898;DHT22;10111;50.814;4.572;2023-01-10T16:07:18;8.30;99.90
19898;DHT22;10111;50.814;4.572;2023-01-10T16:10:06;8.30;99.90
19898;DHT22;10111;50.814;4.572;2023-01-10T16:12:34;8.30;99.90
19898;DHT22;10111;50.814;4.572;2023-01-10T16:15:21;8.40;99.90
19898;DHT22;10111;50.814;4.572;2023-01-10T16:17:48;8.60;99.90
19898;DHT22;10111;50.814;4.572;2023-01-10T16:20:19;8.40;99.90
19898;DHT22;10111;50.814;4.572;2023-01-10T16:22:46;8.40;99.90
19898;DHT22;10111;50.814;4.572;2023-01-10T16:25:18;8.40;99.90
19898;DHT22;10111;50.814;4.572;2023-01-10T16:27:45;8.30;99.90
19898;DHT22;10111;50.814;4.572;2023-01-10T16:30:31;8.20;99.90
19898;DHT22;10111;50.814;4.572;2023-01-10T16:32:59;8.30;99.90
19898;DHT22;10111;50.814;4.572;2023-01-10T16:35:27;8.40;99.90
19898;DHT22;10111;50.814;4.572;2023-01-10T16:37:54;8.40;99.90
19898;DHT22;10111;50.814;4.572;2023-01-10T16:40:27;8.40;99.90
19898;DHT22;10111;50.814;4.572;2023-01-10T16:42:54;8.50;99.90
19898;DHT22;10111;50.814;4.572;2023-01-10T16:45:38;8.30;99.90
19898;DHT22;10111;50.814;4.572;2023-01-10T16:48:05;8.40;99.90
19898;DHT22;10111;50.814;4.572;2023-01-10T16:50:31;8.40;99.90
19898;DHT22;10111;50.814;4.572;2023-01-10T16:52:57;8.60;99.90
19898;DHT22;10111;50.814;4.572;2023-01-10T16:55:47;8.50;99.90
19898;DHT22;10111;50.814;4.572;2023-01-10T16:58:15;8.60;99.90
19898;DHT22;10111;50.814;4.572;2023-01-10T17:00:42;8.70;99.90
19898;DHT22;10111;50.814;4.572;2023-01-10T17:03:16;8.70;99.90
19898;DHT22;10111;50.814;4.572;2023-01-10T17:05:42;8.70;99.90
19898;DHT22;10111;50.814;4.572;2023-01-10T17:08:17;8.70;99.90
19898;DHT22;10111;50.814;4.572;2023-01-10T17:10:44;8.60;99.90
19898;DHT22;10111;50.814;4.572;2023-01-10T17:13:11;8.60;99.90
19898;DHT22;10111;50.814;4.572;2023-01-10T17:15:36;8.70;99.90
19898;DHT22;10111;50.814;4.572;2023-01-10T17:18:03;8.80;99.90
19898;DHT22;10111;50.814;4.572;2023-01-10T17:20:28;8.80;99.90
19898;DHT22;10111;50.814;4.572;2023-01-10T17:22:55;8.80;99.90
19898;DHT22;10111;50.814;4.572;2023-01-10T17:25:21;8.90;99.90
19898;DHT22;10111;50.814;4.572;2023-01-10T17:27:47;8.90;99.90
19898;DHT22;10111;50.814;4.572;2023-01-10T17:30:13;8.90;99.90
19898;DHT22;10111;50.814;4.572;2023-01-10T17:32:39;9.00;99.90
19898;DHT22;10111;50.814;4.572;2023-01-10T17:35:06;9.00;99.90
19898;DHT22;10111;50.814;4.572;2023-01-10T17:37:32;9.00;99.90
19898;DHT22;10111;50.814;4.572;2023-01-10T17:39:57;9.10;99.90
19898;DHT22;10111;50.814;4.572;2023-01-10T17:42:23;9.10;99.90
19898;DHT22;10111;50.814;4.572;2023-01-10T17:44:49;9.20;99.90
19898;DHT22;10111;50.814;4.572;2023-01-10T17:47:14;9.20;99.90
19898;DHT22;10111;50.814;4.572;2023-01-10T17:49:40;9.20;99.90